Time,TemperatureF,DewpointF,PressureIn,WindDirection,WindDirectionDegrees,WindSpeedMPH,WindSpeedGustMPH,Humidity,HourlyPrecipIn,Conditions,Clouds,dailyrainin,SolarRadiationWatts/m^2,SoftwareType,DateUTC
2013-01-28 00:02:00,31.0,27.0,-100.00,West,271,6.0,9.0,84,0.00,,,0.00,0.000000,,2013-01-28 07:02:00,
2013-01-28 00:11:00,31.0,27.0,-100.00,West,271,6.0,9.0,84,0.00,,,0.00,0.000000,,2013-01-28 07:11:00,
2013-01-28 00:21:00,31.0,27.0,-100.00,West,271,6.0,9.0,84,0.00,,,0.00,0.000000,,2013-01-28 07:21:00,
2013-01-28 00:32:00,31.0,27.0,-100.00,West,271,6.0,9.0,84,0.00,,,0.00,0.000000,,2013-01-28 07:32:00,
2013-01-28 00:40:00,31.0,28.0,-100.00,West,269,6.0,11.0,89,0.00,,,0.00,0.000000,,2013-01-28 07:40:00,
2013-01-28 01:01:00,31.0,28.0,-100.00,West,269,6.0,11.0,89,0.00,,,0.00,0.000000,,2013-01-28 08:01:00,
2013-01-28 01:11:00,31.0,28.0,-100.00,West,269,6.0,11.0,89,0.00,,,0.00,0.000000,,2013-01-28 08:11:00,
2013-01-28 01:21:00,31.0,28.0,-100.00,West,269,6.0,11.0,89,0.00,,,0.00,0.000000,,2013-01-28 08:21:00,
2013-01-28 01:32:00,31.0,28.0,-100.00,West,269,6.0,11.0,89,0.00,,,0.00,0.000000,,2013-01-28 08:32:00,
2013-01-28 01:40:00,30.0,27.0,-100.00,West,277,7.0,10.0,87,0.00,,,0.00,0.000000,,2013-01-28 08:40:00,
2013-01-28 02:02:00,30.0,27.0,-100.00,West,277,7.0,10.0,87,0.00,,,0.00,0.000000,,2013-01-28 09:02:00,
2013-01-28 02:11:00,30.0,27.0,-100.00,West,277,7.0,10.0,87,0.00,,,0.00,0.000000,,2013-01-28 09:11:00,
2013-01-28 02:22:00,30.0,27.0,-100.00,West,277,7.0,10.0,87,0.00,,,0.00,0.000000,,2013-01-28 09:22:00,
2013-01-28 02:32:00,30.0,27.0,-100.00,West,277,7.0,10.0,87,0.00,,,0.00,0.000000,,2013-01-28 09:32:00,
2013-01-28 02:40:00,30.0,27.0,-100.00,West,265,5.0,10.0,87,0.00,,,0.00,0.000000,,2013-01-28 09:40:00,
2013-01-28 03:02:00,30.0,27.0,-100.00,West,265,5.0,10.0,87,0.00,,,0.00,0.000000,,2013-01-28 10:02:00,
2013-01-28 03:11:00,30.0,27.0,-100.00,West,265,5.0,10.0,87,0.00,,,0.00,0.000000,,2013-01-28 10:11:00,
2013-01-28 03:21:00,30.0,27.0,-100.00,West,265,5.0,10.0,87,0.00,,,0.00,0.000000,,2013-01-28 10:21:00,
2013-01-28 03:32:00,30.0,27.0,-100.00,West,265,5.0,10.0,87,0.00,,,0.00,0.000000,,2013-01-28 10:32:00,
2013-01-28 03:40:00,28.0,25.0,-100.00,WSW,256,4.0,7.0,88,0.00,,,0.00,0.000000,,2013-01-28 10:40:00,
2013-01-28 04:02:00,28.0,25.0,-100.00,WSW,256,4.0,7.0,88,0.00,,,0.00,0.000000,,2013-01-28 11:02:00,
2013-01-28 04:11:00,28.0,25.0,-100.00,WSW,256,4.0,7.0,88,0.00,,,0.00,0.000000,,2013-01-28 11:11:00,
2013-01-28 04:22:00,28.0,25.0,-100.00,WSW,256,4.0,7.0,88,0.00,,,0.00,0.000000,,2013-01-28 11:22:00,
2013-01-28 04:32:00,28.0,25.0,-100.00,WSW,256,4.0,7.0,88,0.00,,,0.00,0.000000,,2013-01-28 11:32:00,
2013-01-28 04:40:00,29.0,26.0,-100.00,West,276,7.0,10.0,87,0.00,,,-99.99,0.000000,,2013-01-28 11:40:00,
2013-01-28 05:12:00,29.0,26.0,-100.00,West,276,7.0,10.0,87,0.00,,,-99.99,0.000000,,2013-01-28 12:12:00,
2013-01-28 05:23:00,29.0,26.0,-100.00,West,276,7.0,10.0,87,0.00,,,-99.99,0.000000,,2013-01-28 12:23:00,
2013-01-28 05:33:00,29.0,26.0,-100.00,West,276,7.0,10.0,87,0.00,,,-99.99,0.000000,,2013-01-28 12:33:00,
2013-01-28 05:40:00,29.0,25.0,-100.00,West,263,7.0,12.0,83,0.00,,,0.00,0.000000,,2013-01-28 12:40:00,
2013-01-28 06:03:00,29.0,25.0,-100.00,West,263,7.0,12.0,83,0.00,,,0.00,0.000000,,2013-01-28 13:03:00,
2013-01-28 06:12:00,29.0,25.0,-100.00,West,263,7.0,12.0,83,0.00,,,0.00,0.000000,,2013-01-28 13:12:00,
2013-01-28 06:23:00,29.0,25.0,-100.00,West,263,7.0,12.0,83,0.00,,,0.00,0.000000,,2013-01-28 13:23:00,
2013-01-28 06:33:00,29.0,25.0,-100.00,West,263,7.0,12.0,83,0.00,,,0.00,0.000000,,2013-01-28 13:33:00,
2013-01-28 06:40:00,29.0,25.0,-100.00,West,275,6.0,10.0,83,0.00,,,0.00,0.000000,,2013-01-28 13:40:00,
2013-01-28 07:03:00,29.0,25.0,-100.00,West,275,6.0,10.0,83,0.00,,,0.00,0.000000,,2013-01-28 14:03:00,
2013-01-28 07:12:00,29.0,25.0,-100.00,West,275,6.0,10.0,83,0.00,,,0.00,0.000000,,2013-01-28 14:12:00,
2013-01-28 07:22:00,29.0,25.0,-100.00,West,275,6.0,10.0,83,0.00,,,0.00,0.000000,,2013-01-28 14:22:00,
2013-01-28 07:33:00,29.0,25.0,-100.00,West,275,6.0,10.0,83,0.00,,,0.00,0.000000,,2013-01-28 14:33:00,
2013-01-28 07:40:00,28.0,24.0,-100.00,West,278,8.0,11.0,83,0.00,,,0.00,1.000000,,2013-01-28 14:40:00,
2013-01-28 08:03:00,28.0,24.0,-100.00,West,278,8.0,11.0,83,0.00,,,0.00,1.000000,,2013-01-28 15:03:00,
2013-01-28 08:12:00,28.0,24.0,-100.00,West,278,8.0,11.0,83,0.00,,,0.00,1.000000,,2013-01-28 15:12:00,
2013-01-28 08:23:00,28.0,24.0,-100.00,West,278,8.0,11.0,83,0.00,,,0.00,1.000000,,2013-01-28 15:23:00,
2013-01-28 08:33:00,28.0,24.0,-100.00,West,278,8.0,11.0,83,0.00,,,0.00,1.000000,,2013-01-28 15:33:00,
2013-01-28 08:40:00,29.0,25.0,-100.00,West,268,9.0,13.0,84,0.00,,,0.00,41.000000,,2013-01-28 15:40:00,
2013-01-28 09:04:00,29.0,25.0,-100.00,West,268,9.0,13.0,84,0.00,,,0.00,41.000000,,2013-01-28 16:04:00,
2013-01-28 09:12:00,29.0,25.0,-100.00,West,268,9.0,13.0,84,0.00,,,0.00,41.000000,,2013-01-28 16:12:00,
2013-01-28 09:22:00,29.0,25.0,-100.00,West,268,9.0,13.0,84,0.00,,,0.00,41.000000,,2013-01-28 16:22:00,
2013-01-28 09:32:00,29.0,25.0,-100.00,West,268,9.0,13.0,84,0.00,,,0.00,41.000000,,2013-01-28 16:32:00,
2013-01-28 09:40:00,31.0,26.0,-100.00,West,262,9.0,16.0,80,0.00,,,0.00,170.000000,,2013-01-28 16:40:00,
2013-01-28 10:02:00,31.0,26.0,-100.00,West,262,9.0,16.0,80,0.00,,,0.00,170.000000,,2013-01-28 17:02:00,
2013-01-28 10:12:00,31.0,26.0,-100.00,West,262,9.0,16.0,80,0.00,,,0.00,170.000000,,2013-01-28 17:12:00,
2013-01-28 10:23:00,31.0,26.0,-100.00,West,262,9.0,16.0,80,0.00,,,0.00,170.000000,,2013-01-28 17:23:00,
2013-01-28 10:32:00,31.0,26.0,-100.00,West,262,9.0,16.0,80,0.00,,,0.00,170.000000,,2013-01-28 17:32:00,
2013-01-28 10:40:00,34.0,26.0,-100.00,West,264,9.0,14.0,72,0.00,,,0.00,305.000000,,2013-01-28 17:40:00,
2013-01-28 11:03:00,34.0,26.0,-100.00,West,264,9.0,14.0,72,0.00,,,0.00,305.000000,,2013-01-28 18:03:00,
2013-01-28 11:12:00,34.0,26.0,-100.00,West,264,9.0,14.0,72,0.00,,,0.00,305.000000,,2013-01-28 18:12:00,
2013-01-28 11:23:00,34.0,26.0,-100.00,West,264,9.0,14.0,72,0.00,,,0.00,305.000000,,2013-01-28 18:23:00,
2013-01-28 11:33:00,34.0,26.0,-100.00,West,264,9.0,14.0,72,0.00,,,0.00,305.000000,,2013-01-28 18:33:00,
2013-01-28 11:40:00,35.0,25.0,-100.00,West,266,9.0,13.0,67,0.00,,,0.00,417.000000,,2013-01-28 18:40:00,
2013-01-28 12:02:00,35.0,25.0,-100.00,West,266,9.0,13.0,67,0.00,,,0.00,417.000000,,2013-01-28 19:02:00,
2013-01-28 12:12:00,35.0,25.0,-100.00,West,266,9.0,13.0,67,0.00,,,0.00,417.000000,,2013-01-28 19:12:00,
2013-01-28 12:22:00,35.0,25.0,-100.00,West,266,9.0,13.0,67,0.00,,,0.00,417.000000,,2013-01-28 19:22:00,
2013-01-28 12:32:00,35.0,25.0,-100.00,West,266,9.0,13.0,67,0.00,,,0.00,417.000000,,2013-01-28 19:32:00,
2013-01-28 12:40:00,34.0,25.0,-100.00,West,266,10.0,15.0,69,0.00,,,0.00,327.000000,,2013-01-28 19:40:00,
2013-01-28 13:02:00,34.0,25.0,-100.00,West,266,10.0,15.0,69,0.00,,,0.00,327.000000,,2013-01-28 20:02:00,
2013-01-28 13:12:00,34.0,25.0,-100.00,West,266,10.0,15.0,69,0.00,,,0.00,327.000000,,2013-01-28 20:12:00,
2013-01-28 13:22:00,34.0,25.0,-100.00,West,266,10.0,15.0,69,0.00,,,0.00,327.000000,,2013-01-28 20:22:00,
2013-01-28 13:33:00,34.0,25.0,-100.00,West,266,10.0,15.0,69,0.00,,,0.00,327.000000,,2013-01-28 20:33:00,
2013-01-28 13:40:00,33.0,23.0,-100.00,WNW,285,9.0,16.0,66,0.00,,,0.00,317.000000,,2013-01-28 20:40:00,
2013-01-28 14:03:00,33.0,23.0,-100.00,WNW,285,9.0,16.0,66,0.00,,,0.00,317.000000,,2013-01-28 21:03:00,
2013-01-28 14:12:00,33.0,23.0,-100.00,WNW,285,9.0,16.0,66,0.00,,,0.00,317.000000,,2013-01-28 21:12:00,
2013-01-28 14:22:00,33.0,23.0,-100.00,WNW,285,9.0,16.0,66,0.00,,,0.00,317.000000,,2013-01-28 21:22:00,
2013-01-28 14:33:00,33.0,23.0,-100.00,WNW,285,9.0,16.0,66,0.00,,,0.00,317.000000,,2013-01-28 21:33:00,
2013-01-28 14:40:00,33.0,21.0,-100.00,West,279,8.0,13.0,62,0.00,,,0.00,278.000000,,2013-01-28 21:40:00,
2013-01-28 15:02:00,33.0,21.0,-100.00,West,279,8.0,13.0,62,0.00,,,0.00,278.000000,,2013-01-28 22:02:00,
2013-01-28 15:12:00,33.0,21.0,-100.00,West,279,8.0,13.0,62,0.00,,,0.00,278.000000,,2013-01-28 22:12:00,
2013-01-28 15:23:00,33.0,21.0,-100.00,West,279,8.0,13.0,62,0.00,,,0.00,278.000000,,2013-01-28 22:23:00,
2013-01-28 15:32:00,33.0,21.0,-100.00,West,279,8.0,13.0,62,0.00,,,0.00,278.000000,,2013-01-28 22:32:00,
2013-01-28 15:40:00,33.0,22.0,-100.00,West,271,8.0,14.0,64,0.00,,,0.00,213.000000,,2013-01-28 22:40:00,
2013-01-28 16:02:00,33.0,22.0,-100.00,West,271,8.0,14.0,64,0.00,,,0.00,213.000000,,2013-01-28 23:02:00,
2013-01-28 16:12:00,33.0,22.0,-100.00,West,271,8.0,14.0,64,0.00,,,0.00,213.000000,,2013-01-28 23:12:00,
2013-01-28 16:22:00,33.0,22.0,-100.00,West,271,8.0,14.0,64,0.00,,,0.00,213.000000,,2013-01-28 23:22:00,
2013-01-28 16:32:00,33.0,22.0,-100.00,West,271,8.0,14.0,64,0.00,,,0.00,213.000000,,2013-01-28 23:32:00,
2013-01-28 16:40:00,31.0,22.0,-100.00,West,262,8.0,11.0,69,0.00,,,0.00,54.000000,,2013-01-28 23:40:00,
2013-01-28 17:02:00,31.0,22.0,-100.00,West,262,8.0,11.0,69,0.00,,,0.00,54.000000,,2013-01-29 00:02:00,
2013-01-28 17:12:00,31.0,22.0,-100.00,West,262,8.0,11.0,69,0.00,,,0.00,54.000000,,2013-01-29 00:12:00,
2013-01-28 17:22:00,31.0,22.0,-100.00,West,262,8.0,11.0,69,0.00,,,0.00,54.000000,,2013-01-29 00:22:00,
2013-01-28 17:32:00,31.0,22.0,-100.00,West,262,8.0,11.0,69,0.00,,,0.00,54.000000,,2013-01-29 00:32:00,
2013-01-28 17:40:00,31.0,22.0,-100.00,WSW,243,5.0,9.0,70,0.00,,,0.00,4.000000,,2013-01-29 00:40:00,
2013-01-28 18:02:00,31.0,22.0,-100.00,WSW,243,5.0,9.0,70,0.00,,,0.00,4.000000,,2013-01-29 01:02:00,
2013-01-28 18:12:00,31.0,22.0,-100.00,WSW,243,5.0,9.0,70,0.00,,,0.00,4.000000,,2013-01-29 01:12:00,
2013-01-28 18:23:00,31.0,22.0,-100.00,WSW,243,5.0,9.0,70,0.00,,,0.00,4.000000,,2013-01-29 01:23:00,
2013-01-28 18:32:00,31.0,22.0,-100.00,WSW,243,5.0,9.0,70,0.00,,,0.00,4.000000,,2013-01-29 01:32:00,
2013-01-28 18:40:00,31.0,23.0,-100.00,WSW,246,7.0,10.0,71,0.00,,,0.00,0.000000,,2013-01-29 01:40:00,
2013-01-28 19:02:00,31.0,23.0,-100.00,WSW,246,7.0,10.0,71,0.00,,,0.00,0.000000,,2013-01-29 02:02:00,
2013-01-28 19:12:00,31.0,23.0,-100.00,WSW,246,7.0,10.0,71,0.00,,,0.00,0.000000,,2013-01-29 02:12:00,
2013-01-28 19:22:00,31.0,23.0,-100.00,WSW,246,7.0,10.0,71,0.00,,,0.00,0.000000,,2013-01-29 02:22:00,
2013-01-28 19:33:00,31.0,23.0,-100.00,WSW,246,7.0,10.0,71,0.00,,,0.00,0.000000,,2013-01-29 02:33:00,
2013-01-28 19:40:00,29.0,22.0,-100.00,West,261,6.0,10.0,76,0.00,,,0.00,0.000000,,2013-01-29 02:40:00,
2013-01-28 20:03:00,29.0,22.0,-100.00,West,261,6.0,10.0,76,0.00,,,0.00,0.000000,,2013-01-29 03:03:00,
2013-01-28 20:12:00,29.0,22.0,-100.00,West,261,6.0,10.0,76,0.00,,,0.00,0.000000,,2013-01-29 03:12:00,
2013-01-28 20:22:00,29.0,22.0,-100.00,West,261,6.0,10.0,76,0.00,,,0.00,0.000000,,2013-01-29 03:22:00,
2013-01-28 20:32:00,29.0,22.0,-100.00,West,261,6.0,10.0,76,0.00,,,0.00,0.000000,,2013-01-29 03:32:00,
2013-01-28 20:40:00,26.0,21.0,-100.00,NNW,330,0.0,10.0,80,0.00,,,0.00,0.000000,,2013-01-29 03:40:00,
2013-01-28 21:02:00,26.0,21.0,-100.00,NNW,330,0.0,10.0,80,0.00,,,0.00,0.000000,,2013-01-29 04:02:00,
2013-01-28 21:11:00,26.0,21.0,-100.00,NNW,330,0.0,10.0,80,0.00,,,0.00,0.000000,,2013-01-29 04:11:00,
2013-01-28 21:22:00,26.0,21.0,-100.00,NNW,330,0.0,10.0,80,0.00,,,0.00,0.000000,,2013-01-29 04:22:00,
2013-01-28 21:32:00,26.0,21.0,-100.00,NNW,330,0.0,10.0,80,0.00,,,0.00,0.000000,,2013-01-29 04:32:00,
2013-01-28 21:40:00,25.0,21.0,-100.00,SW,228,3.0,7.0,84,0.00,,,0.00,0.000000,,2013-01-29 04:40:00,
2013-01-28 22:03:00,25.0,21.0,-100.00,SW,228,3.0,7.0,84,0.00,,,0.00,0.000000,,2013-01-29 05:03:00,
2013-01-28 22:12:00,25.0,21.0,-100.00,SW,228,3.0,7.0,84,0.00,,,0.00,0.000000,,2013-01-29 05:12:00,
2013-01-28 22:21:00,25.0,21.0,-100.00,SW,228,3.0,7.0,84,0.00,,,0.00,0.000000,,2013-01-29 05:21:00,
2013-01-28 22:32:00,25.0,21.0,-100.00,SW,228,3.0,7.0,84,0.00,,,0.00,0.000000,,2013-01-29 05:32:00,
2013-01-28 22:40:00,24.0,22.0,-100.00,WNW,291,1.0,4.0,90,0.00,,,0.00,0.000000,,2013-01-29 05:40:00,
2013-01-28 23:02:00,24.0,22.0,-100.00,WNW,291,1.0,4.0,90,0.00,,,0.00,0.000000,,2013-01-29 06:02:00,
2013-01-28 23:11:00,24.0,22.0,-100.00,WNW,291,1.0,4.0,90,0.00,,,0.00,0.000000,,2013-01-29 06:11:00,
2013-01-28 23:21:00,24.0,22.0,-100.00,WNW,291,1.0,4.0,90,0.00,,,0.00,0.000000,,2013-01-29 06:21:00,
2013-01-28 23:32:00,24.0,22.0,-100.00,WNW,291,1.0,4.0,90,0.00,,,0.00,0.000000,,2013-01-29 06:32:00,
2013-01-28 23:40:00,25.0,19.0,-100.00,West,275,7.0,9.0,78,0.00,,,0.00,0.000000,,2013-01-29 06:40:00,